sensor_id;sensor_type;location;lat;lon;timestamp;P1;durP1;ratioP1;P2;durP2;ratioP2
21030;SDS011;61072;47.808;7.636;2023-04-25T00:00:19;4.43;;;2.13;;
21030;SDS011;61072;47.808;7.636;2023-04-25T00:02:46;5.53;;;2.47;;
21030;SDS011;61072;47.808;7.636;2023-04-25T00:05:14;5.32;;;2.53;;
21030;SDS011;61072;47.808;7.636;2023-04-25T00:07:41;6.53;;;2.58;;
21030;SDS011;61072;47.808;7.636;2023-04-25T00:10:09;6.07;;;2.55;;
21030;SDS011;61072;47.808;7.636;2023-04-25T00:12:37;6.05;;;2.65;;
21030;SDS011;61072;47.808;7.636;2023-04-25T00:15:05;8.63;;;3.10;;
21030;SDS011;61072;47.808;7.636;2023-04-25T00:17:32;7.45;;;2.65;;
21030;SDS011;61072;47.808;7.636;2023-04-25T00:20:01;6.68;;;2.30;;
21030;SDS011;61072;47.808;7.636;2023-04-25T00:22:31;7.07;;;2.97;;
21030;SDS011;61072;47.808;7.636;2023-04-25T00:24:59;8.02;;;2.85;;
21030;SDS011;61072;47.808;7.636;2023-04-25T00:27:26;6.45;;;2.42;;
21030;SDS011;61072;47.808;7.636;2023-04-25T00:29:53;7.28;;;2.88;;
21030;SDS011;61072;47.808;7.636;2023-04-25T00:32:19;6.80;;;2.80;;
21030;SDS011;61072;47.808;7.636;2023-04-25T00:34:46;4.18;;;2.55;;
21030;SDS011;61072;47.808;7.636;2023-04-25T00:37:13;9.73;;;3.92;;
21030;SDS011;61072;47.808;7.636;2023-04-25T00:39:40;9.38;;;2.70;;
21030;SDS011;61072;47.808;7.636;2023-04-25T00:42:06;6.30;;;2.67;;
21030;SDS011;61072;47.808;7.636;2023-04-25T00:44:34;3.58;;;2.50;;
21030;SDS011;61072;47.808;7.636;2023-04-25T00:47:02;8.15;;;2.63;;
21030;SDS011;61072;47.808;7.636;2023-04-25T00:49:29;6.57;;;2.88;;
21030;SDS011;61072;47.808;7.636;2023-04-25T00:51:56;8.00;;;3.47;;
21030;SDS011;61072;47.808;7.636;2023-04-25T00:54:23;8.30;;;3.00;;
21030;SDS011;61072;47.808;7.636;2023-04-25T00:56:50;6.18;;;3.25;;
21030;SDS011;61072;47.808;7.636;2023-04-25T00:59:18;8.40;;;3.70;;
21030;SDS011;61072;47.808;7.636;2023-04-25T01:01:46;7.05;;;2.95;;
21030;SDS011;61072;47.808;7.636;2023-04-25T01:04:13;7.28;;;3.13;;
21030;SDS011;61072;47.808;7.636;2023-04-25T01:06:40;8.73;;;2.70;;
21030;SDS011;61072;47.808;7.636;2023-04-25T01:09:07;6.38;;;3.35;;
21030;SDS011;61072;47.808;7.636;2023-04-25T01:11:34;6.60;;;2.83;;
21030;SDS011;61072;47.808;7.636;2023-04-25T01:14:00;6.22;;;2.85;;
21030;SDS011;61072;47.808;7.636;2023-04-25T01:16:28;5.88;;;3.03;;
21030;SDS011;61072;47.808;7.636;2023-04-25T01:18:55;8.85;;;3.08;;
21030;SDS011;61072;47.808;7.636;2023-04-25T01:21:22;9.05;;;3.03;;
21030;SDS011;61072;47.808;7.636;2023-04-25T01:23:52;5.70;;;2.67;;
21030;SDS011;61072;47.808;7.636;2023-04-25T01:26:19;8.18;;;3.00;;
21030;SDS011;61072;47.808;7.636;2023-04-25T01:28:47;6.85;;;3.42;;
21030;SDS011;61072;47.808;7.636;2023-04-25T01:31:15;8.80;;;3.08;;
21030;SDS011;61072;47.808;7.636;2023-04-25T01:33:42;6.75;;;2.85;;
21030;SDS011;61072;47.808;7.636;2023-04-25T01:36:09;10.75;;;2.97;;
21030;SDS011;61072;47.808;7.636;2023-04-25T01:38:37;4.82;;;2.90;;
21030;SDS011;61072;47.808;7.636;2023-04-25T01:41:04;7.10;;;2.75;;
21030;SDS011;61072;47.808;7.636;2023-04-25T01:43:31;4.55;;;2.60;;
21030;SDS011;61072;47.808;7.636;2023-04-25T01:45:58;7.18;;;2.92;;
21030;SDS011;61072;47.808;7.636;2023-04-25T01:48:25;8.30;;;3.00;;
21030;SDS011;61072;47.808;7.636;2023-04-25T01:50:52;10.10;;;3.95;;
21030;SDS011;61072;47.808;7.636;2023-04-25T01:53:19;6.07;;;2.58;;
21030;SDS011;61072;47.808;7.636;2023-04-25T01:55:45;6.40;;;3.03;;
21030;SDS011;61072;47.808;7.636;2023-04-25T01:58:12;9.57;;;2.78;;
21030;SDS011;61072;47.808;7.636;2023-04-25T02:00:39;7.80;;;2.95;;
21030;SDS011;61072;47.808;7.636;2023-04-25T02:03:07;9.48;;;3.28;;
21030;SDS011;61072;47.808;7.636;2023-04-25T02:05:38;6.97;;;3.30;;
21030;SDS011;61072;47.808;7.636;2023-04-25T02:08:06;10.40;;;3.70;;
21030;SDS011;61072;47.808;7.636;2023-04-25T02:10:34;9.52;;;3.30;;
21030;SDS011;61072;47.808;7.636;2023-04-25T02:13:01;9.50;;;3.65;;
21030;SDS011;61072;47.808;7.636;2023-04-25T02:15:28;8.93;;;3.45;;
21030;SDS011;61072;47.808;7.636;2023-04-25T02:17:55;10.25;;;3.30;;
21030;SDS011;61072;47.808;7.636;2023-04-25T02:20:22;7.80;;;3.08;;
21030;SDS011;61072;47.808;7.636;2023-04-25T02:22:50;11.10;;;3.60;;
21030;SDS011;61072;47.808;7.636;2023-04-25T02:25:18;10.60;;;3.45;;
21030;SDS011;61072;47.808;7.636;2023-04-25T02:27:46;9.70;;;3.40;;
21030;SDS011;61072;47.808;7.636;2023-04-25T02:30:13;7.82;;;3.22;;
21030;SDS011;61072;47.808;7.636;2023-04-25T02:32:40;5.72;;;2.83;;
21030;SDS011;61072;47.808;7.636;2023-04-25T02:35:07;7.88;;;3.25;;
21030;SDS011;61072;47.808;7.636;2023-04-25T02:37:35;6.57;;;3.10;;
21030;SDS011;61072;47.808;7.636;2023-04-25T02:40:03;8.93;;;3.20;;
21030;SDS011;61072;47.808;7.636;2023-04-25T02:42:31;7.95;;;2.50;;
21030;SDS011;61072;47.808;7.636;2023-04-25T02:44:57;9.85;;;3.20;;
21030;SDS011;61072;47.808;7.636;2023-04-25T02:47:24;7.43;;;3.03;;
21030;SDS011;61072;47.808;7.636;2023-04-25T02:49:51;11.20;;;3.30;;
21030;SDS011;61072;47.808;7.636;2023-04-25T02:52:18;9.27;;;3.13;;
21030;SDS011;61072;47.808;7.636;2023-04-25T02:54:45;10.40;;;2.95;;
21030;SDS011;61072;47.808;7.636;2023-04-25T02:57:11;7.45;;;3.40;;
21030;SDS011;61072;47.808;7.636;2023-04-25T02:59:38;6.40;;;4.03;;
21030;SDS011;61072;47.808;7.636;2023-04-25T03:02:05;4.45;;;3.28;;
21030;SDS011;61072;47.808;7.636;2023-04-25T03:04:32;7.15;;;3.50;;
21030;SDS011;61072;47.808;7.636;2023-04-25T03:07:00;7.07;;;3.53;;
21030;SDS011;61072;47.808;7.636;2023-04-25T03:09:28;7.75;;;3.28;;
21030;SDS011;61072;47.808;7.636;2023-04-25T03:11:56;5.05;;;3.13;;
21030;SDS011;61072;47.808;7.636;2023-04-25T03:14:24;7.47;;;3.75;;
21030;SDS011;61072;47.808;7.636;2023-04-25T03:16:52;8.18;;;4.10;;
21030;SDS011;61072;47.808;7.636;2023-04-25T03:19:18;5.35;;;2.92;;
21030;SDS011;61072;47.808;7.636;2023-04-25T03:21:47;6.75;;;3.17;;
21030;SDS011;61072;47.808;7.636;2023-04-25T03:24:14;10.45;;;3.38;;
21030;SDS011;61072;47.808;7.636;2023-04-25T03:26:41;7.45;;;3.05;;
21030;SDS011;61072;47.808;7.636;2023-04-25T03:29:08;8.57;;;3.65;;
21030;SDS011;61072;47.808;7.636;2023-04-25T03:31:34;8.48;;;3.28;;
21030;SDS011;61072;47.808;7.636;2023-04-25T03:34:01;5.25;;;3.45;;
21030;SDS011;61072;47.808;7.636;2023-04-25T03:36:28;8.25;;;3.17;;
21030;SDS011;61072;47.808;7.636;2023-04-25T03:38:54;7.68;;;3.30;;
21030;SDS011;61072;47.808;7.636;2023-04-25T03:41:21;7.35;;;3.50;;
21030;SDS011;61072;47.808;7.636;2023-04-25T03:43:48;8.88;;;3.05;;
21030;SDS011;61072;47.808;7.636;2023-04-25T03:46:15;6.70;;;2.92;;
21030;SDS011;61072;47.808;7.636;2023-04-25T03:48:42;8.18;;;3.65;;
21030;SDS011;61072;47.808;7.636;2023-04-25T03:51:08;8.50;;;3.20;;
21030;SDS011;61072;47.808;7.636;2023-04-25T03:53:35;7.65;;;2.85;;
21030;SDS011;61072;47.808;7.636;2023-04-25T03:56:02;6.95;;;3.90;;
21030;SDS011;61072;47.808;7.636;2023-04-25T03:58:29;10.88;;;3.47;;
21030;SDS011;61072;47.808;7.636;2023-04-25T04:00:55;10.48;;;2.97;;
21030;SDS011;61072;47.808;7.636;2023-04-25T04:03:22;10.40;;;2.97;;
21030;SDS011;61072;47.808;7.636;2023-04-25T04:05:49;7.40;;;3.20;;
21030;SDS011;61072;47.808;7.636;2023-04-25T04:08:16;8.75;;;2.88;;
21030;SDS011;61072;47.808;7.636;2023-04-25T04:10:43;8.13;;;2.95;;
21030;SDS011;61072;47.808;7.636;2023-04-25T04:13:10;11.10;;;3.30;;
21030;SDS011;61072;47.808;7.636;2023-04-25T04:15:37;6.60;;;2.55;;
21030;SDS011;61072;47.808;7.636;2023-04-25T04:18:04;8.50;;;3.85;;
21030;SDS011;61072;47.808;7.636;2023-04-25T04:20:32;5.32;;;3.33;;
21030;SDS011;61072;47.808;7.636;2023-04-25T04:23:02;7.80;;;3.47;;
21030;SDS011;61072;47.808;7.636;2023-04-25T04:25:29;7.57;;;2.95;;
21030;SDS011;61072;47.808;7.636;2023-04-25T04:27:56;6.78;;;3.10;;
21030;SDS011;61072;47.808;7.636;2023-04-25T04:30:23;10.32;;;2.35;;
21030;SDS011;61072;47.808;7.636;2023-04-25T04:32:51;8.00;;;3.72;;
21030;SDS011;61072;47.808;7.636;2023-04-25T04:35:18;7.15;;;2.55;;
21030;SDS011;61072;47.808;7.636;2023-04-25T04:37:45;9.52;;;3.25;;
21030;SDS011;61072;47.808;7.636;2023-04-25T04:40:12;8.20;;;3.08;;
21030;SDS011;61072;47.808;7.636;2023-04-25T04:42:42;5.80;;;2.58;;
21030;SDS011;61072;47.808;7.636;2023-04-25T04:45:09;6.85;;;2.58;;
21030;SDS011;61072;47.808;7.636;2023-04-25T04:47:36;4.75;;;2.40;;
21030;SDS011;61072;47.808;7.636;2023-04-25T04:50:03;6.88;;;3.20;;
21030;SDS011;61072;47.808;7.636;2023-04-25T04:52:30;5.93;;;3.13;;
21030;SDS011;61072;47.808;7.636;2023-04-25T04:54:57;7.03;;;2.83;;
21030;SDS011;61072;47.808;7.636;2023-04-25T04:57:23;5.80;;;2.47;;
21030;SDS011;61072;47.808;7.636;2023-04-25T04:59:50;3.47;;;1.95;;
21030;SDS011;61072;47.808;7.636;2023-04-25T05:02:17;7.93;;;1.88;;
21030;SDS011;61072;47.808;7.636;2023-04-25T05:04:44;2.58;;;1.85;;
21030;SDS011;61072;47.808;7.636;2023-04-25T05:07:11;3.63;;;1.92;;
21030;SDS011;61072;47.808;7.636;2023-04-25T05:09:38;2.85;;;1.63;;
21030;SDS011;61072;47.808;7.636;2023-04-25T05:12:05;2.67;;;1.30;;
21030;SDS011;61072;47.808;7.636;2023-04-25T05:14:31;4.15;;;1.10;;
21030;SDS011;61072;47.808;7.636;2023-04-25T05:16:58;3.60;;;1.20;;
21030;SDS011;61072;47.808;7.636;2023-04-25T05:19:25;2.28;;;0.80;;
21030;SDS011;61072;47.808;7.636;2023-04-25T05:21:52;2.30;;;1.23;;
21030;SDS011;61072;47.808;7.636;2023-04-25T05:24:19;1.13;;;0.90;;
21030;SDS011;61072;47.808;7.636;2023-04-25T05:26:46;2.00;;;1.23;;
21030;SDS011;61072;47.808;7.636;2023-04-25T05:29:12;2.72;;;1.02;;
21030;SDS011;61072;47.808;7.636;2023-04-25T05:31:39;2.40;;;1.05;;
21030;SDS011;61072;47.808;7.636;2023-04-25T05:34:06;1.58;;;1.00;;
21030;SDS011;61072;47.808;7.636;2023-04-25T05:36:32;4.85;;;1.38;;
21030;SDS011;61072;47.808;7.636;2023-04-25T05:38:59;2.33;;;1.20;;
21030;SDS011;61072;47.808;7.636;2023-04-25T05:41:26;3.13;;;1.60;;
21030;SDS011;61072;47.808;7.636;2023-04-25T05:43:52;4.00;;;0.90;;
21030;SDS011;61072;47.808;7.636;2023-04-25T05:46:23;1.55;;;0.85;;
21030;SDS011;61072;47.808;7.636;2023-04-25T05:48:49;2.03;;;1.00;;
21030;SDS011;61072;47.808;7.636;2023-04-25T05:51:16;2.58;;;0.90;;
21030;SDS011;61072;47.808;7.636;2023-04-25T05:53:44;2.10;;;1.13;;
21030;SDS011;61072;47.808;7.636;2023-04-25T05:56:11;2.80;;;1.00;;
21030;SDS011;61072;47.808;7.636;2023-04-25T05:58:38;1.10;;;0.85;;
21030;SDS011;61072;47.808;7.636;2023-04-25T06:01:04;0.77;;;0.65;;
21030;SDS011;61072;47.808;7.636;2023-04-25T06:03:31;2.00;;;0.93;;
21030;SDS011;61072;47.808;7.636;2023-04-25T06:05:58;1.00;;;0.85;;
21030;SDS011;61072;47.808;7.636;2023-04-25T06:08:25;2.63;;;1.10;;
21030;SDS011;61072;47.808;7.636;2023-04-25T06:10:52;1.50;;;1.02;;
21030;SDS011;61072;47.808;7.636;2023-04-25T06:13:18;1.30;;;1.20;;
21030;SDS011;61072;47.808;7.636;2023-04-25T06:15:45;3.03;;;1.40;;
21030;SDS011;61072;47.808;7.636;2023-04-25T06:18:12;2.22;;;0.95;;
21030;SDS011;61072;47.808;7.636;2023-04-25T06:20:38;1.63;;;0.98;;
21030;SDS011;61072;47.808;7.636;2023-04-25T06:23:05;2.13;;;1.13;;
21030;SDS011;61072;47.808;7.636;2023-04-25T06:25:32;1.67;;;1.15;;
21030;SDS011;61072;47.808;7.636;2023-04-25T06:27:59;5.43;;;0.90;;
21030;SDS011;61072;47.808;7.636;2023-04-25T06:30:26;2.08;;;1.05;;
21030;SDS011;61072;47.808;7.636;2023-04-25T06:32:53;7.88;;;1.20;;
21030;SDS011;61072;47.808;7.636;2023-04-25T06:35:20;1.63;;;1.10;;
21030;SDS011;61072;47.808;7.636;2023-04-25T06:37:47;1.27;;;0.90;;
21030;SDS011;61072;47.808;7.636;2023-04-25T06:40:14;1.55;;;1.08;;
21030;SDS011;61072;47.808;7.636;2023-04-25T06:42:41;1.83;;;1.10;;
21030;SDS011;61072;47.808;7.636;2023-04-25T06:45:07;7.57;;;1.52;;
21030;SDS011;61072;47.808;7.636;2023-04-25T06:47:34;2.35;;;1.10;;
21030;SDS011;61072;47.808;7.636;2023-04-25T06:50:01;2.33;;;1.10;;
21030;SDS011;61072;47.808;7.636;2023-04-25T06:52:28;1.88;;;1.00;;
21030;SDS011;61072;47.808;7.636;2023-04-25T06:54:56;3.72;;;1.10;;
21030;SDS011;61072;47.808;7.636;2023-04-25T06:57:23;2.63;;;1.13;;
21030;SDS011;61072;47.808;7.636;2023-04-25T06:59:49;2.13;;;1.02;;
21030;SDS011;61072;47.808;7.636;2023-04-25T07:02:16;1.98;;;1.20;;
21030;SDS011;61072;47.808;7.636;2023-04-25T07:04:43;1.63;;;1.30;;
21030;SDS011;61072;47.808;7.636;2023-04-25T07:07:11;1.45;;;1.20;;
21030;SDS011;61072;47.808;7.636;2023-04-25T07:09:38;2.55;;;1.25;;
21030;SDS011;61072;47.808;7.636;2023-04-25T07:12:05;1.67;;;1.17;;
21030;SDS011;61072;47.808;7.636;2023-04-25T07:14:32;2.85;;;1.17;;
21030;SDS011;61072;47.808;7.636;2023-04-25T07:16:58;1.40;;;1.10;;
21030;SDS011;61072;47.808;7.636;2023-04-25T07:19:25;2.22;;;1.40;;
21030;SDS011;61072;47.808;7.636;2023-04-25T07:21:53;2.50;;;1.63;;
21030;SDS011;61072;47.808;7.636;2023-04-25T07:24:19;2.85;;;1.40;;
21030;SDS011;61072;47.808;7.636;2023-04-25T07:26:46;3.47;;;1.73;;
21030;SDS011;61072;47.808;7.636;2023-04-25T07:29:13;4.53;;;1.65;;
21030;SDS011;61072;47.808;7.636;2023-04-25T07:31:39;3.92;;;1.40;;
21030;SDS011;61072;47.808;7.636;2023-04-25T07:34:06;2.40;;;1.63;;
21030;SDS011;61072;47.808;7.636;2023-04-25T07:36:33;3.83;;;1.77;;
21030;SDS011;61072;47.808;7.636;2023-04-25T07:39:00;3.53;;;1.95;;
21030;SDS011;61072;47.808;7.636;2023-04-25T07:41:26;2.72;;;1.95;;
21030;SDS011;61072;47.808;7.636;2023-04-25T07:43:53;3.63;;;1.95;;
21030;SDS011;61072;47.808;7.636;2023-04-25T07:46:20;3.55;;;2.00;;
21030;SDS011;61072;47.808;7.636;2023-04-25T07:48:47;3.58;;;2.20;;
21030;SDS011;61072;47.808;7.636;2023-04-25T07:51:14;4.25;;;2.47;;
21030;SDS011;61072;47.808;7.636;2023-04-25T07:53:41;3.22;;;1.92;;
21030;SDS011;61072;47.808;7.636;2023-04-25T07:56:07;4.15;;;2.15;;
21030;SDS011;61072;47.808;7.636;2023-04-25T07:58:35;2.92;;;1.83;;
21030;SDS011;61072;47.808;7.636;2023-04-25T08:01:02;3.53;;;2.03;;
21030;SDS011;61072;47.808;7.636;2023-04-25T08:03:29;3.33;;;1.60;;
21030;SDS011;61072;47.808;7.636;2023-04-25T08:05:56;2.53;;;1.85;;
21030;SDS011;61072;47.808;7.636;2023-04-25T08:08:23;2.40;;;1.92;;
21030;SDS011;61072;47.808;7.636;2023-04-25T08:10:50;2.90;;;2.17;;
21030;SDS011;61072;47.808;7.636;2023-04-25T08:13:16;3.53;;;2.33;;
21030;SDS011;61072;47.808;7.636;2023-04-25T08:15:43;3.15;;;1.60;;
21030;SDS011;61072;47.808;7.636;2023-04-25T08:18:10;4.07;;;2.25;;
21030;SDS011;61072;47.808;7.636;2023-04-25T08:20:36;2.90;;;1.80;;
21030;SDS011;61072;47.808;7.636;2023-04-25T08:23:03;1.95;;;1.50;;
21030;SDS011;61072;47.808;7.636;2023-04-25T08:25:30;3.65;;;1.65;;
21030;SDS011;61072;47.808;7.636;2023-04-25T08:27:57;2.75;;;1.80;;
21030;SDS011;61072;47.808;7.636;2023-04-25T08:30:25;1.88;;;1.55;;
21030;SDS011;61072;47.808;7.636;2023-04-25T08:32:53;1.80;;;1.30;;
21030;SDS011;61072;47.808;7.636;2023-04-25T08:35:20;2.40;;;1.58;;
21030;SDS011;61072;47.808;7.636;2023-04-25T08:37:46;2.53;;;1.70;;
21030;SDS011;61072;47.808;7.636;2023-04-25T08:40:15;3.03;;;1.40;;
21030;SDS011;61072;47.808;7.636;2023-04-25T08:42:42;2.50;;;1.38;;
21030;SDS011;61072;47.808;7.636;2023-04-25T08:45:09;2.33;;;1.30;;
21030;SDS011;61072;47.808;7.636;2023-04-25T08:47:37;2.28;;;1.92;;
21030;SDS011;61072;47.808;7.636;2023-04-25T08:50:06;3.63;;;1.70;;
21030;SDS011;61072;47.808;7.636;2023-04-25T08:52:37;3.40;;;1.55;;
21030;SDS011;61072;47.808;7.636;2023-04-25T08:55:09;1.83;;;1.42;;
21030;SDS011;61072;47.808;7.636;2023-04-25T08:57:38;1.67;;;1.40;;
21030;SDS011;61072;47.808;7.636;2023-04-25T09:00:07;4.57;;;1.53;;
21030;SDS011;61072;47.808;7.636;2023-04-25T09:02:35;2.03;;;1.70;;
21030;SDS011;61072;47.808;7.636;2023-04-25T09:05:02;3.10;;;1.70;;
21030;SDS011;61072;47.808;7.636;2023-04-25T09:07:30;2.15;;;1.50;;
21030;SDS011;61072;47.808;7.636;2023-04-25T09:09:57;4.40;;;1.63;;
21030;SDS011;61072;47.808;7.636;2023-04-25T09:12:25;3.75;;;1.73;;
21030;SDS011;61072;47.808;7.636;2023-04-25T09:17:36;1.70;;;1.10;;
21030;SDS011;61072;47.808;7.636;2023-04-25T09:20:07;0.93;;;0.77;;
21030;SDS011;61072;47.808;7.636;2023-04-25T09:22:38;0.95;;;0.80;;
21030;SDS011;61072;47.808;7.636;2023-04-25T09:25:14;3.20;;;1.20;;
21030;SDS011;61072;47.808;7.636;2023-04-25T09:27:50;0.90;;;0.70;;
21030;SDS011;61072;47.808;7.636;2023-04-25T09:30:29;3.20;;;0.90;;
21030;SDS011;61072;47.808;7.636;2023-04-25T09:32:57;1.13;;;0.77;;
21030;SDS011;61072;47.808;7.636;2023-04-25T09:35:30;1.00;;;0.80;;
21030;SDS011;61072;47.808;7.636;2023-04-25T09:38:12;0.75;;;0.75;;
21030;SDS011;61072;47.808;7.636;2023-04-25T09:40:40;1.30;;;0.93;;
21030;SDS011;61072;47.808;7.636;2023-04-25T09:43:18;1.73;;;0.90;;
21030;SDS011;61072;47.808;7.636;2023-04-25T09:45:46;1.63;;;1.15;;
21030;SDS011;61072;47.808;7.636;2023-04-25T09:48:20;1.92;;;0.95;;
21030;SDS011;61072;47.808;7.636;2023-04-25T09:51:03;2.75;;;1.40;;
21030;SDS011;61072;47.808;7.636;2023-04-25T09:53:40;1.20;;;0.95;;
21030;SDS011;61072;47.808;7.636;2023-04-25T09:56:09;3.65;;;1.05;;
21030;SDS011;61072;47.808;7.636;2023-04-25T09:58:38;1.65;;;0.90;;
21030;SDS011;61072;47.808;7.636;2023-04-25T10:01:07;1.75;;;1.00;;
21030;SDS011;61072;47.808;7.636;2023-04-25T10:03:36;5.55;;;3.50;;
21030;SDS011;61072;47.808;7.636;2023-04-25T10:06:07;4.07;;;2.50;;
21030;SDS011;61072;47.808;7.636;2023-04-25T10:08:44;1.83;;;1.10;;
21030;SDS011;61072;47.808;7.636;2023-04-25T10:11:11;2.38;;;1.00;;
21030;SDS011;61072;47.808;7.636;2023-04-25T10:13:41;2.22;;;1.55;;
21030;SDS011;61072;47.808;7.636;2023-04-25T10:16:09;6.50;;;4.60;;
21030;SDS011;61072;47.808;7.636;2023-04-25T10:18:36;2.42;;;1.50;;
21030;SDS011;61072;47.808;7.636;2023-04-25T10:21:04;1.98;;;0.95;;
21030;SDS011;61072;47.808;7.636;2023-04-25T10:23:32;4.05;;;2.03;;
21030;SDS011;61072;47.808;7.636;2023-04-25T10:26:00;2.13;;;1.33;;
21030;SDS011;61072;47.808;7.636;2023-04-25T10:28:28;1.80;;;0.90;;
21030;SDS011;61072;47.808;7.636;2023-04-25T10:31:03;1.77;;;1.00;;
21030;SDS011;61072;47.808;7.636;2023-04-25T10:33:37;1.48;;;1.20;;
21030;SDS011;61072;47.808;7.636;2023-04-25T10:36:15;4.53;;;1.85;;
21030;SDS011;61072;47.808;7.636;2023-04-25T10:38:45;4.10;;;1.20;;
21030;SDS011;61072;47.808;7.636;2023-04-25T10:41:13;6.20;;;1.77;;
21030;SDS011;61072;47.808;7.636;2023-04-25T10:43:41;1.60;;;1.10;;
21030;SDS011;61072;47.808;7.636;2023-04-25T10:46:24;1.40;;;1.30;;
21030;SDS011;61072;47.808;7.636;2023-04-25T10:49:01;2.00;;;1.30;;
21030;SDS011;61072;47.808;7.636;2023-04-25T10:51:29;1.35;;;0.80;;
21030;SDS011;61072;47.808;7.636;2023-04-25T10:54:18;2.90;;;0.93;;
21030;SDS011;61072;47.808;7.636;2023-04-25T10:56:46;4.72;;;1.20;;
21030;SDS011;61072;47.808;7.636;2023-04-25T10:59:15;1.70;;;0.82;;
21030;SDS011;61072;47.808;7.636;2023-04-25T11:01:48;0.60;;;0.60;;
21030;SDS011;61072;47.808;7.636;2023-04-25T11:04:23;1.73;;;0.85;;
21030;SDS011;61072;47.808;7.636;2023-04-25T11:09:42;3.05;;;1.30;;
21030;SDS011;61072;47.808;7.636;2023-04-25T11:12:11;2.80;;;1.48;;
21030;SDS011;61072;47.808;7.636;2023-04-25T11:14:39;2.42;;;1.05;;
21030;SDS011;61072;47.808;7.636;2023-04-25T11:17:10;1.40;;;1.10;;
21030;SDS011;61072;47.808;7.636;2023-04-25T11:19:38;3.28;;;1.83;;
21030;SDS011;61072;47.808;7.636;2023-04-25T11:22:04;3.05;;;1.45;;
21030;SDS011;61072;47.808;7.636;2023-04-25T11:24:32;2.60;;;1.25;;
21030;SDS011;61072;47.808;7.636;2023-04-25T11:27:01;5.43;;;2.03;;
21030;SDS011;61072;47.808;7.636;2023-04-25T11:29:32;4.95;;;1.55;;
21030;SDS011;61072;47.808;7.636;2023-04-25T11:32:00;5.78;;;1.50;;
21030;SDS011;61072;47.808;7.636;2023-04-25T11:34:28;2.67;;;1.00;;
21030;SDS011;61072;47.808;7.636;2023-04-25T11:36:59;2.13;;;1.10;;
21030;SDS011;61072;47.808;7.636;2023-04-25T11:39:28;1.70;;;1.20;;
21030;SDS011;61072;47.808;7.636;2023-04-25T11:41:56;10.57;;;2.05;;
21030;SDS011;61072;47.808;7.636;2023-04-25T11:44:23;2.97;;;1.40;;
21030;SDS011;61072;47.808;7.636;2023-04-25T11:46:50;16.02;;;5.00;;
21030;SDS011;61072;47.808;7.636;2023-04-25T11:49:16;4.72;;;2.40;;
21030;SDS011;61072;47.808;7.636;2023-04-25T11:51:45;3.58;;;1.92;;
21030;SDS011;61072;47.808;7.636;2023-04-25T11:54:13;4.40;;;1.80;;
21030;SDS011;61072;47.808;7.636;2023-04-25T11:56:41;3.75;;;1.80;;
21030;SDS011;61072;47.808;7.636;2023-04-25T11:59:08;2.35;;;1.10;;
21030;SDS011;61072;47.808;7.636;2023-04-25T12:01:38;4.75;;;1.35;;
21030;SDS011;61072;47.808;7.636;2023-04-25T12:04:19;2.42;;;1.30;;
21030;SDS011;61072;47.808;7.636;2023-04-25T12:06:57;4.40;;;1.73;;
21030;SDS011;61072;47.808;7.636;2023-04-25T12:09:30;2.30;;;1.50;;
21030;SDS011;61072;47.808;7.636;2023-04-25T12:11:58;4.68;;;1.77;;
21030;SDS011;61072;47.808;7.636;2023-04-25T12:14:30;3.92;;;2.22;;
21030;SDS011;61072;47.808;7.636;2023-04-25T12:16:59;2.35;;;1.45;;
21030;SDS011;61072;47.808;7.636;2023-04-25T12:19:30;2.55;;;1.42;;
21030;SDS011;61072;47.808;7.636;2023-04-25T12:22:00;2.45;;;1.60;;
21030;SDS011;61072;47.808;7.636;2023-04-25T12:24:45;2.20;;;1.50;;
21030;SDS011;61072;47.808;7.636;2023-04-25T12:27:13;2.22;;;1.33;;
21030;SDS011;61072;47.808;7.636;2023-04-25T12:29:52;4.32;;;1.48;;
21030;SDS011;61072;47.808;7.636;2023-04-25T12:32:20;1.65;;;1.30;;
21030;SDS011;61072;47.808;7.636;2023-04-25T12:34:47;3.92;;;1.42;;
21030;SDS011;61072;47.808;7.636;2023-04-25T12:37:14;2.30;;;1.27;;
21030;SDS011;61072;47.808;7.636;2023-04-25T12:39:41;1.30;;;1.10;;
21030;SDS011;61072;47.808;7.636;2023-04-25T12:42:08;4.20;;;1.50;;
21030;SDS011;61072;47.808;7.636;2023-04-25T12:44:38;6.57;;;1.33;;
21030;SDS011;61072;47.808;7.636;2023-04-25T12:47:05;2.67;;;1.73;;
21030;SDS011;61072;47.808;7.636;2023-04-25T12:49:32;2.72;;;1.10;;
21030;SDS011;61072;47.808;7.636;2023-04-25T12:51:59;2.05;;;1.33;;
21030;SDS011;61072;47.808;7.636;2023-04-25T12:54:25;4.45;;;1.63;;
21030;SDS011;61072;47.808;7.636;2023-04-25T12:56:52;5.72;;;3.10;;
21030;SDS011;61072;47.808;7.636;2023-04-25T12:59:19;3.22;;;2.92;;
21030;SDS011;61072;47.808;7.636;2023-04-25T13:01:47;7.28;;;4.15;;
21030;SDS011;61072;47.808;7.636;2023-04-25T13:04:14;5.82;;;3.97;;
21030;SDS011;61072;47.808;7.636;2023-04-25T13:06:42;3.33;;;2.50;;
21030;SDS011;61072;47.808;7.636;2023-04-25T13:09:09;4.40;;;2.60;;
21030;SDS011;61072;47.808;7.636;2023-04-25T13:11:35;7.70;;;6.97;;
21030;SDS011;61072;47.808;7.636;2023-04-25T13:14:02;4.28;;;3.63;;
21030;SDS011;61072;47.808;7.636;2023-04-25T13:16:29;2.05;;;1.85;;
21030;SDS011;61072;47.808;7.636;2023-04-25T13:18:56;1.30;;;1.20;;
21030;SDS011;61072;47.808;7.636;2023-04-25T13:21:23;1.42;;;0.90;;
21030;SDS011;61072;47.808;7.636;2023-04-25T13:23:50;2.88;;;1.02;;
21030;SDS011;61072;47.808;7.636;2023-04-25T13:26:17;1.23;;;1.05;;
21030;SDS011;61072;47.808;7.636;2023-04-25T13:28:44;2.58;;;0.80;;
21030;SDS011;61072;47.808;7.636;2023-04-25T13:31:11;1.40;;;1.30;;
21030;SDS011;61072;47.808;7.636;2023-04-25T13:33:37;2.05;;;1.23;;
21030;SDS011;61072;47.808;7.636;2023-04-25T13:36:04;2.58;;;1.15;;
21030;SDS011;61072;47.808;7.636;2023-04-25T13:38:31;1.75;;;0.70;;
21030;SDS011;61072;47.808;7.636;2023-04-25T13:40:58;1.00;;;0.90;;
21030;SDS011;61072;47.808;7.636;2023-04-25T13:43:25;0.95;;;0.70;;
21030;SDS011;61072;47.808;7.636;2023-04-25T13:45:52;2.08;;;0.77;;
21030;SDS011;61072;47.808;7.636;2023-04-25T13:48:19;2.88;;;0.90;;
21030;SDS011;61072;47.808;7.636;2023-04-25T13:50:46;0.82;;;0.70;;
21030;SDS011;61072;47.808;7.636;2023-04-25T13:53:13;0.70;;;0.70;;
21030;SDS011;61072;47.808;7.636;2023-04-25T13:55:39;0.65;;;0.60;;
21030;SDS011;61072;47.808;7.636;2023-04-25T13:58:06;2.45;;;0.60;;
21030;SDS011;61072;47.808;7.636;2023-04-25T14:00:37;2.00;;;0.90;;
21030;SDS011;61072;47.808;7.636;2023-04-25T14:03:05;0.73;;;0.68;;
21030;SDS011;61072;47.808;7.636;2023-04-25T14:05:36;1.10;;;0.70;;
21030;SDS011;61072;47.808;7.636;2023-04-25T14:08:05;1.50;;;0.98;;
21030;SDS011;61072;47.808;7.636;2023-04-25T14:10:33;1.48;;;1.02;;
21030;SDS011;61072;47.808;7.636;2023-04-25T14:13:01;1.40;;;1.30;;
21030;SDS011;61072;47.808;7.636;2023-04-25T14:15:32;1.58;;;1.27;;
21030;SDS011;61072;47.808;7.636;2023-04-25T14:17:59;3.25;;;1.42;;
21030;SDS011;61072;47.808;7.636;2023-04-25T14:20:27;1.30;;;1.20;;
21030;SDS011;61072;47.808;7.636;2023-04-25T14:22:54;1.90;;;1.20;;
21030;SDS011;61072;47.808;7.636;2023-04-25T14:25:22;3.65;;;1.20;;
21030;SDS011;61072;47.808;7.636;2023-04-25T14:27:49;1.40;;;1.08;;
21030;SDS011;61072;47.808;7.636;2023-04-25T14:30:17;1.50;;;1.02;;
21030;SDS011;61072;47.808;7.636;2023-04-25T14:32:45;1.30;;;0.93;;
21030;SDS011;61072;47.808;7.636;2023-04-25T14:35:12;1.40;;;0.90;;
21030;SDS011;61072;47.808;7.636;2023-04-25T14:37:39;0.93;;;0.80;;
21030;SDS011;61072;47.808;7.636;2023-04-25T14:40:06;4.35;;;2.00;;
21030;SDS011;61072;47.808;7.636;2023-04-25T14:42:36;1.95;;;1.08;;
21030;SDS011;61072;47.808;7.636;2023-04-25T14:45:04;2.25;;;1.20;;
21030;SDS011;61072;47.808;7.636;2023-04-25T14:47:32;1.92;;;1.13;;
21030;SDS011;61072;47.808;7.636;2023-04-25T14:49:59;2.85;;;1.20;;
21030;SDS011;61072;47.808;7.636;2023-04-25T14:52:27;3.53;;;1.17;;
21030;SDS011;61072;47.808;7.636;2023-04-25T14:54:54;3.08;;;1.27;;
21030;SDS011;61072;47.808;7.636;2023-04-25T14:57:21;2.55;;;1.40;;